sensor_id;sensor_type;location;lat;lon;timestamp;temperature;humidity
6102;DHT22;3081;50.584;7.032;2022-07-29T00:01:38;19.40;77.60
6102;DHT22;3081;50.584;7.032;2022-07-29T00:04:04;19.40;78.00
6102;DHT22;3081;50.584;7.032;2022-07-29T00:06:31;19.30;78.30
6102;DHT22;3081;50.584;7.032;2022-07-29T00:08:58;19.30;78.60
6102;DHT22;3081;50.584;7.032;2022-07-29T00:11:27;19.30;78.70
6102;DHT22;3081;50.584;7.032;2022-07-29T00:13:54;19.20;78.70
6102;DHT22;3081;50.584;7.032;2022-07-29T00:16:21;19.10;78.70
6102;DHT22;3081;50.584;7.032;2022-07-29T00:18:48;19.00;78.70
6102;DHT22;3081;50.584;7.032;2022-07-29T00:21:15;19.00;78.70
6102;DHT22;3081;50.584;7.032;2022-07-29T00:23:42;19.00;78.50
6102;DHT22;3081;50.584;7.032;2022-07-29T00:26:09;19.10;78.40
6102;DHT22;3081;50.584;7.032;2022-07-29T00:28:37;19.10;78.30
6102;DHT22;3081;50.584;7.032;2022-07-29T00:31:04;19.10;78.40
6102;DHT22;3081;50.584;7.032;2022-07-29T00:33:32;19.20;78.50
6102;DHT22;3081;50.584;7.032;2022-07-29T00:35:59;19.10;79.40
6102;DHT22;3081;50.584;7.032;2022-07-29T00:38:25;18.90;79.90
6102;DHT22;3081;50.584;7.032;2022-07-29T00:40:52;18.80;80.30
6102;DHT22;3081;50.584;7.032;2022-07-29T00:43:19;18.70;81.20
6102;DHT22;3081;50.584;7.032;2022-07-29T00:45:47;18.70;80.60
6102;DHT22;3081;50.584;7.032;2022-07-29T00:48:14;18.70;80.50
6102;DHT22;3081;50.584;7.032;2022-07-29T00:50:41;18.60;80.70
6102;DHT22;3081;50.584;7.032;2022-07-29T00:53:08;18.60;80.60
6102;DHT22;3081;50.584;7.032;2022-07-29T00:55:38;18.60;80.80
6102;DHT22;3081;50.584;7.032;2022-07-29T00:58:05;18.50;81.00
6102;DHT22;3081;50.584;7.032;2022-07-29T01:00:33;18.40;81.20
6102;DHT22;3081;50.584;7.032;2022-07-29T01:03:02;18.40;81.30
6102;DHT22;3081;50.584;7.032;2022-07-29T01:05:30;18.40;81.40
6102;DHT22;3081;50.584;7.032;2022-07-29T01:07:57;18.50;81.30
6102;DHT22;3081;50.584;7.032;2022-07-29T01:10:26;18.60;81.10
6102;DHT22;3081;50.584;7.032;2022-07-29T01:12:55;18.60;80.80
6102;DHT22;3081;50.584;7.032;2022-07-29T01:15:23;18.50;81.00
6102;DHT22;3081;50.584;7.032;2022-07-29T01:18:05;18.50;81.30
6102;DHT22;3081;50.584;7.032;2022-07-29T01:20:46;18.30;82.70
6102;DHT22;3081;50.584;7.032;2022-07-29T01:23:36;18.10;83.50
6102;DHT22;3081;50.584;7.032;2022-07-29T01:26:31;18.00;83.60
6102;DHT22;3081;50.584;7.032;2022-07-29T01:29:06;17.90;84.30
6102;DHT22;3081;50.584;7.032;2022-07-29T01:31:41;17.80;84.30
6102;DHT22;3081;50.584;7.032;2022-07-29T01:34:12;17.70;84.50
6102;DHT22;3081;50.584;7.032;2022-07-29T01:36:45;17.70;84.20
6102;DHT22;3081;50.584;7.032;2022-07-29T01:39:18;17.70;84.40
6102;DHT22;3081;50.584;7.032;2022-07-29T01:41:50;17.70;84.60
6102;DHT22;3081;50.584;7.032;2022-07-29T01:44:27;17.60;84.50
6102;DHT22;3081;50.584;7.032;2022-07-29T01:47:00;17.60;84.20
6102;DHT22;3081;50.584;7.032;2022-07-29T01:49:31;17.70;84.50
6102;DHT22;3081;50.584;7.032;2022-07-29T01:52:05;17.60;84.60
6102;DHT22;3081;50.584;7.032;2022-07-29T01:54:37;17.60;84.60
6102;DHT22;3081;50.584;7.032;2022-07-29T01:57:09;17.50;85.10
6102;DHT22;3081;50.584;7.032;2022-07-29T01:59:40;17.40;86.00
6102;DHT22;3081;50.584;7.032;2022-07-29T02:02:09;17.30;85.40
6102;DHT22;3081;50.584;7.032;2022-07-29T02:04:37;17.20;85.70
6102;DHT22;3081;50.584;7.032;2022-07-29T02:07:07;17.10;85.80
6102;DHT22;3081;50.584;7.032;2022-07-29T02:09:38;17.10;86.00
6102;DHT22;3081;50.584;7.032;2022-07-29T02:12:07;17.10;86.10
6102;DHT22;3081;50.584;7.032;2022-07-29T02:14:41;17.00;86.20
6102;DHT22;3081;50.584;7.032;2022-07-29T02:17:11;17.00;86.20
6102;DHT22;3081;50.584;7.032;2022-07-29T02:19:39;17.00;86.50
6102;DHT22;3081;50.584;7.032;2022-07-29T02:22:09;16.80;87.50
6102;DHT22;3081;50.584;7.032;2022-07-29T02:24:37;16.70;87.50
6102;DHT22;3081;50.584;7.032;2022-07-29T02:27:07;16.50;88.20
6102;DHT22;3081;50.584;7.032;2022-07-29T02:29:35;16.50;88.20
6102;DHT22;3081;50.584;7.032;2022-07-29T02:32:07;16.40;88.40
6102;DHT22;3081;50.584;7.032;2022-07-29T02:34:38;16.40;88.40
6102;DHT22;3081;50.584;7.032;2022-07-29T02:37:05;16.40;88.50
6102;DHT22;3081;50.584;7.032;2022-07-29T02:39:34;16.40;89.00
6102;DHT22;3081;50.584;7.032;2022-07-29T02:42:05;16.30;89.10
6102;DHT22;3081;50.584;7.032;2022-07-29T02:44:34;16.20;89.20
6102;DHT22;3081;50.584;7.032;2022-07-29T02:47:06;16.30;89.40
6102;DHT22;3081;50.584;7.032;2022-07-29T02:49:36;16.30;89.30
6102;DHT22;3081;50.584;7.032;2022-07-29T02:52:08;16.30;89.10
6102;DHT22;3081;50.584;7.032;2022-07-29T02:54:41;16.30;89.30
6102;DHT22;3081;50.584;7.032;2022-07-29T02:57:13;16.30;89.20
6102;DHT22;3081;50.584;7.032;2022-07-29T02:59:42;16.30;89.20
6102;DHT22;3081;50.584;7.032;2022-07-29T03:02:12;16.40;89.30
6102;DHT22;3081;50.584;7.032;2022-07-29T03:04:42;16.30;89.10
6102;DHT22;3081;50.584;7.032;2022-07-29T03:07:11;16.20;89.70
6102;DHT22;3081;50.584;7.032;2022-07-29T03:09:41;16.20;89.90
6102;DHT22;3081;50.584;7.032;2022-07-29T03:12:09;16.10;90.20
6102;DHT22;3081;50.584;7.032;2022-07-29T03:14:37;16.20;90.20
6102;DHT22;3081;50.584;7.032;2022-07-29T03:17:05;16.10;90.30
6102;DHT22;3081;50.584;7.032;2022-07-29T03:19:34;16.00;90.40
6102;DHT22;3081;50.584;7.032;2022-07-29T03:22:02;16.00;90.30
6102;DHT22;3081;50.584;7.032;2022-07-29T03:24:32;15.90;90.40
6102;DHT22;3081;50.584;7.032;2022-07-29T03:26:59;15.90;90.50
6102;DHT22;3081;50.584;7.032;2022-07-29T03:29:27;15.80;90.60
6102;DHT22;3081;50.584;7.032;2022-07-29T03:31:54;15.80;90.80
6102;DHT22;3081;50.584;7.032;2022-07-29T03:34:21;15.80;90.70
6102;DHT22;3081;50.584;7.032;2022-07-29T03:36:50;15.80;90.70
6102;DHT22;3081;50.584;7.032;2022-07-29T03:39:20;15.80;90.70
6102;DHT22;3081;50.584;7.032;2022-07-29T03:41:49;15.90;90.70
6102;DHT22;3081;50.584;7.032;2022-07-29T03:44:17;15.90;90.60
6102;DHT22;3081;50.584;7.032;2022-07-29T03:46:46;16.00;90.60
6102;DHT22;3081;50.584;7.032;2022-07-29T03:49:15;16.10;90.60
6102;DHT22;3081;50.584;7.032;2022-07-29T03:51:43;16.20;90.50
6102;DHT22;3081;50.584;7.032;2022-07-29T03:54:12;16.20;90.40
6102;DHT22;3081;50.584;7.032;2022-07-29T03:56:41;16.20;90.30
6102;DHT22;3081;50.584;7.032;2022-07-29T03:59:13;16.20;90.30
6102;DHT22;3081;50.584;7.032;2022-07-29T04:01:41;16.20;90.30
6102;DHT22;3081;50.584;7.032;2022-07-29T04:04:09;16.20;90.20
6102;DHT22;3081;50.584;7.032;2022-07-29T04:06:39;16.20;90.30
6102;DHT22;3081;50.584;7.032;2022-07-29T04:09:07;16.20;90.30
6102;DHT22;3081;50.584;7.032;2022-07-29T04:11:36;16.20;90.30
6102;DHT22;3081;50.584;7.032;2022-07-29T04:14:03;16.20;90.30
6102;DHT22;3081;50.584;7.032;2022-07-29T04:16:30;16.20;90.30
6102;DHT22;3081;50.584;7.032;2022-07-29T04:18:57;16.20;90.40
6102;DHT22;3081;50.584;7.032;2022-07-29T04:21:24;16.10;90.30
6102;DHT22;3081;50.584;7.032;2022-07-29T04:23:51;16.20;90.20
6102;DHT22;3081;50.584;7.032;2022-07-29T04:26:19;16.30;90.30
6102;DHT22;3081;50.584;7.032;2022-07-29T04:28:47;16.30;90.20
6102;DHT22;3081;50.584;7.032;2022-07-29T04:31:14;16.30;90.10
6102;DHT22;3081;50.584;7.032;2022-07-29T04:33:41;16.50;90.20
6102;DHT22;3081;50.584;7.032;2022-07-29T04:36:08;16.50;90.10
6102;DHT22;3081;50.584;7.032;2022-07-29T04:38:37;16.60;90.20
6102;DHT22;3081;50.584;7.032;2022-07-29T04:41:04;16.60;90.40
6102;DHT22;3081;50.584;7.032;2022-07-29T04:43:32;16.70;90.00
6102;DHT22;3081;50.584;7.032;2022-07-29T04:46:00;16.80;89.60
6102;DHT22;3081;50.584;7.032;2022-07-29T04:48:27;16.90;89.50
6102;DHT22;3081;50.584;7.032;2022-07-29T04:50:55;17.00;89.40
6102;DHT22;3081;50.584;7.032;2022-07-29T04:53:22;17.20;89.30
6102;DHT22;3081;50.584;7.032;2022-07-29T04:55:49;17.30;89.20
6102;DHT22;3081;50.584;7.032;2022-07-29T04:58:16;17.40;88.90
6102;DHT22;3081;50.584;7.032;2022-07-29T05:00:43;17.60;88.50
6102;DHT22;3081;50.584;7.032;2022-07-29T05:03:12;17.70;88.50
6102;DHT22;3081;50.584;7.032;2022-07-29T05:05:39;17.70;88.00
6102;DHT22;3081;50.584;7.032;2022-07-29T05:08:06;17.80;87.60
6102;DHT22;3081;50.584;7.032;2022-07-29T05:10:33;17.90;87.80
6102;DHT22;3081;50.584;7.032;2022-07-29T05:13:04;17.90;87.70
6102;DHT22;3081;50.584;7.032;2022-07-29T05:15:31;18.00;87.40
6102;DHT22;3081;50.584;7.032;2022-07-29T05:17:58;18.10;87.40
6102;DHT22;3081;50.584;7.032;2022-07-29T05:20:26;18.20;86.50
6102;DHT22;3081;50.584;7.032;2022-07-29T05:22:54;18.30;86.30
6102;DHT22;3081;50.584;7.032;2022-07-29T05:25:21;18.40;86.10
6102;DHT22;3081;50.584;7.032;2022-07-29T05:27:48;18.50;85.30
6102;DHT22;3081;50.584;7.032;2022-07-29T05:30:15;18.50;85.70
6102;DHT22;3081;50.584;7.032;2022-07-29T05:32:42;18.50;85.00
6102;DHT22;3081;50.584;7.032;2022-07-29T05:35:09;18.50;85.10
6102;DHT22;3081;50.584;7.032;2022-07-29T05:37:38;18.50;85.40
6102;DHT22;3081;50.584;7.032;2022-07-29T05:40:06;18.50;85.30
6102;DHT22;3081;50.584;7.032;2022-07-29T05:42:34;18.60;85.10
6102;DHT22;3081;50.584;7.032;2022-07-29T05:45:01;18.60;84.30
6102;DHT22;3081;50.584;7.032;2022-07-29T05:47:28;18.60;84.70
6102;DHT22;3081;50.584;7.032;2022-07-29T05:49:56;18.70;84.10
6102;DHT22;3081;50.584;7.032;2022-07-29T05:52:23;18.80;83.80
6102;DHT22;3081;50.584;7.032;2022-07-29T05:54:51;19.00;83.10
6102;DHT22;3081;50.584;7.032;2022-07-29T05:57:19;19.00;83.20
6102;DHT22;3081;50.584;7.032;2022-07-29T05:59:47;19.20;82.60
6102;DHT22;3081;50.584;7.032;2022-07-29T06:02:15;19.10;82.60
6102;DHT22;3081;50.584;7.032;2022-07-29T06:04:42;19.00;82.80
6102;DHT22;3081;50.584;7.032;2022-07-29T06:07:09;19.00;83.00
6102;DHT22;3081;50.584;7.032;2022-07-29T06:09:36;19.00;82.50
6102;DHT22;3081;50.584;7.032;2022-07-29T06:12:05;19.00;82.40
6102;DHT22;3081;50.584;7.032;2022-07-29T06:14:32;18.90;82.80
6102;DHT22;3081;50.584;7.032;2022-07-29T06:16:59;19.00;82.70
6102;DHT22;3081;50.584;7.032;2022-07-29T06:19:26;19.00;82.30
6102;DHT22;3081;50.584;7.032;2022-07-29T06:21:53;19.10;82.40
6102;DHT22;3081;50.584;7.032;2022-07-29T06:24:20;19.30;81.70
6102;DHT22;3081;50.584;7.032;2022-07-29T06:26:47;19.40;81.50
6102;DHT22;3081;50.584;7.032;2022-07-29T06:29:15;19.70;81.00
6102;DHT22;3081;50.584;7.032;2022-07-29T06:31:42;19.90;80.30
6102;DHT22;3081;50.584;7.032;2022-07-29T06:34:09;20.10;80.20
6102;DHT22;3081;50.584;7.032;2022-07-29T06:36:36;20.30;80.10
6102;DHT22;3081;50.584;7.032;2022-07-29T06:39:05;20.40;78.80
6102;DHT22;3081;50.584;7.032;2022-07-29T06:41:32;20.40;77.80
6102;DHT22;3081;50.584;7.032;2022-07-29T06:43:59;20.30;78.80
6102;DHT22;3081;50.584;7.032;2022-07-29T06:46:28;20.30;78.90
6102;DHT22;3081;50.584;7.032;2022-07-29T06:48:55;20.40;78.80
6102;DHT22;3081;50.584;7.032;2022-07-29T06:51:22;20.50;79.00
6102;DHT22;3081;50.584;7.032;2022-07-29T06:53:50;20.60;78.50
6102;DHT22;3081;50.584;7.032;2022-07-29T06:56:17;20.70;77.90
6102;DHT22;3081;50.584;7.032;2022-07-29T06:58:44;20.80;77.60
6102;DHT22;3081;50.584;7.032;2022-07-29T07:01:12;20.90;77.20
6102;DHT22;3081;50.584;7.032;2022-07-29T07:03:40;20.90;76.50
6102;DHT22;3081;50.584;7.032;2022-07-29T07:06:07;21.10;76.50
6102;DHT22;3081;50.584;7.032;2022-07-29T07:08:34;21.00;76.40
6102;DHT22;3081;50.584;7.032;2022-07-29T07:11:01;21.10;76.70
6102;DHT22;3081;50.584;7.032;2022-07-29T07:13:29;21.20;76.00
6102;DHT22;3081;50.584;7.032;2022-07-29T07:16:00;21.40;75.70
6102;DHT22;3081;50.584;7.032;2022-07-29T07:18:27;21.80;74.60
6102;DHT22;3081;50.584;7.032;2022-07-29T07:20:56;22.00;74.00
6102;DHT22;3081;50.584;7.032;2022-07-29T07:23:23;22.20;73.60
6102;DHT22;3081;50.584;7.032;2022-07-29T07:25:50;22.50;72.20
6102;DHT22;3081;50.584;7.032;2022-07-29T07:28:17;22.80;72.10
6102;DHT22;3081;50.584;7.032;2022-07-29T07:30:45;22.80;70.50
6102;DHT22;3081;50.584;7.032;2022-07-29T07:33:12;22.80;71.00
6102;DHT22;3081;50.584;7.032;2022-07-29T07:35:40;22.70;70.50
6102;DHT22;3081;50.584;7.032;2022-07-29T07:38:08;22.70;71.10
6102;DHT22;3081;50.584;7.032;2022-07-29T07:40:35;22.80;71.00
6102;DHT22;3081;50.584;7.032;2022-07-29T07:43:02;22.90;70.90
6102;DHT22;3081;50.584;7.032;2022-07-29T07:45:29;23.20;71.20
6102;DHT22;3081;50.584;7.032;2022-07-29T07:47:57;23.10;69.50
6102;DHT22;3081;50.584;7.032;2022-07-29T07:50:25;23.10;69.80
6102;DHT22;3081;50.584;7.032;2022-07-29T07:52:53;23.10;69.40
6102;DHT22;3081;50.584;7.032;2022-07-29T07:55:25;23.20;69.80
6102;DHT22;3081;50.584;7.032;2022-07-29T07:57:53;23.40;69.80
6102;DHT22;3081;50.584;7.032;2022-07-29T08:00:22;23.50;69.80
6102;DHT22;3081;50.584;7.032;2022-07-29T08:02:52;23.70;69.30
6102;DHT22;3081;50.584;7.032;2022-07-29T08:05:19;23.90;68.40
6102;DHT22;3081;50.584;7.032;2022-07-29T08:07:46;24.00;67.60
6102;DHT22;3081;50.584;7.032;2022-07-29T08:10:14;24.00;67.40
6102;DHT22;3081;50.584;7.032;2022-07-29T08:13:03;24.00;67.10
6102;DHT22;3081;50.584;7.032;2022-07-29T08:15:30;23.90;67.10
6102;DHT22;3081;50.584;7.032;2022-07-29T08:17:57;23.80;67.20
6102;DHT22;3081;50.584;7.032;2022-07-29T08:20:25;23.80;67.40
6102;DHT22;3081;50.584;7.032;2022-07-29T08:22:52;23.90;68.00
6102;DHT22;3081;50.584;7.032;2022-07-29T08:25:19;23.90;67.30
6102;DHT22;3081;50.584;7.032;2022-07-29T08:27:46;24.10;67.20
6102;DHT22;3081;50.584;7.032;2022-07-29T08:30:15;24.10;67.00
6102;DHT22;3081;50.584;7.032;2022-07-29T08:32:42;24.30;66.50
6102;DHT22;3081;50.584;7.032;2022-07-29T08:35:09;24.40;66.00
6102;DHT22;3081;50.584;7.032;2022-07-29T08:37:37;24.60;64.90
6102;DHT22;3081;50.584;7.032;2022-07-29T08:40:05;24.70;63.10
6102;DHT22;3081;50.584;7.032;2022-07-29T08:42:32;24.90;63.60
6102;DHT22;3081;50.584;7.032;2022-07-29T08:45:00;25.10;63.40
6102;DHT22;3081;50.584;7.032;2022-07-29T08:47:28;25.20;62.20
6102;DHT22;3081;50.584;7.032;2022-07-29T08:49:56;25.40;61.60
6102;DHT22;3081;50.584;7.032;2022-07-29T08:52:25;25.40;61.10
6102;DHT22;3081;50.584;7.032;2022-07-29T08:54:53;25.50;61.30
6102;DHT22;3081;50.584;7.032;2022-07-29T08:57:22;25.50;61.10
6102;DHT22;3081;50.584;7.032;2022-07-29T08:59:50;25.50;61.10
6102;DHT22;3081;50.584;7.032;2022-07-29T09:02:21;25.50;60.80
6102;DHT22;3081;50.584;7.032;2022-07-29T09:04:50;25.50;60.80
6102;DHT22;3081;50.584;7.032;2022-07-29T09:07:18;25.40;61.20
6102;DHT22;3081;50.584;7.032;2022-07-29T09:09:45;25.50;61.10
6102;DHT22;3081;50.584;7.032;2022-07-29T09:12:13;25.60;61.30
6102;DHT22;3081;50.584;7.032;2022-07-29T09:14:41;25.70;61.60
6102;DHT22;3081;50.584;7.032;2022-07-29T09:17:08;26.00;61.60
6102;DHT22;3081;50.584;7.032;2022-07-29T09:19:36;26.20;60.90
6102;DHT22;3081;50.584;7.032;2022-07-29T09:22:06;26.50;59.30
6102;DHT22;3081;50.584;7.032;2022-07-29T09:24:39;26.70;58.70
6102;DHT22;3081;50.584;7.032;2022-07-29T09:27:20;26.90;58.50
6102;DHT22;3081;50.584;7.032;2022-07-29T09:29:55;27.20;57.60
6102;DHT22;3081;50.584;7.032;2022-07-29T09:32:23;27.50;57.60
6102;DHT22;3081;50.584;7.032;2022-07-29T09:35:18;27.90;56.70
6102;DHT22;3081;50.584;7.032;2022-07-29T09:37:47;28.70;55.10
6102;DHT22;3081;50.584;7.032;2022-07-29T09:40:16;29.40;54.30
6102;DHT22;3081;50.584;7.032;2022-07-29T09:42:44;30.50;52.60
6102;DHT22;3081;50.584;7.032;2022-07-29T09:45:11;31.30;51.20
6102;DHT22;3081;50.584;7.032;2022-07-29T09:47:42;32.10;50.10
6102;DHT22;3081;50.584;7.032;2022-07-29T09:50:12;32.50;49.60
6102;DHT22;3081;50.584;7.032;2022-07-29T09:52:47;32.70;48.30
6102;DHT22;3081;50.584;7.032;2022-07-29T09:55:15;32.50;47.80
6102;DHT22;3081;50.584;7.032;2022-07-29T09:57:43;32.40;49.50
6102;DHT22;3081;50.584;7.032;2022-07-29T10:00:12;32.30;50.30
6102;DHT22;3081;50.584;7.032;2022-07-29T10:02:41;32.20;50.10
6102;DHT22;3081;50.584;7.032;2022-07-29T10:05:18;31.70;50.30
6102;DHT22;3081;50.584;7.032;2022-07-29T10:07:49;31.20;51.90
6102;DHT22;3081;50.584;7.032;2022-07-29T10:10:21;30.80;52.90
6102;DHT22;3081;50.584;7.032;2022-07-29T10:12:53;30.60;53.20
6102;DHT22;3081;50.584;7.032;2022-07-29T10:15:22;30.90;53.40
6102;DHT22;3081;50.584;7.032;2022-07-29T10:17:50;31.40;52.20
6102;DHT22;3081;50.584;7.032;2022-07-29T10:20:18;31.60;52.00
6102;DHT22;3081;50.584;7.032;2022-07-29T10:22:46;31.70;52.40
6102;DHT22;3081;50.584;7.032;2022-07-29T10:25:15;31.80;51.90
6102;DHT22;3081;50.584;7.032;2022-07-29T10:27:42;32.00;51.30
6102;DHT22;3081;50.584;7.032;2022-07-29T10:30:11;32.00;51.20
6102;DHT22;3081;50.584;7.032;2022-07-29T10:32:56;32.20;50.20
6102;DHT22;3081;50.584;7.032;2022-07-29T10:35:40;32.10;49.80
6102;DHT22;3081;50.584;7.032;2022-07-29T10:38:41;31.80;49.90
6102;DHT22;3081;50.584;7.032;2022-07-29T10:44:17;32.40;50.50
6102;DHT22;3081;50.584;7.032;2022-07-29T10:46:45;32.70;49.40
6102;DHT22;3081;50.584;7.032;2022-07-29T10:49:16;32.90;49.30
6102;DHT22;3081;50.584;7.032;2022-07-29T10:54:44;32.80;50.00
6102;DHT22;3081;50.584;7.032;2022-07-29T10:57:23;32.90;49.00
6102;DHT22;3081;50.584;7.032;2022-07-29T11:00:25;33.50;48.90
6102;DHT22;3081;50.584;7.032;2022-07-29T11:02:52;34.10;47.80
6102;DHT22;3081;50.584;7.032;2022-07-29T11:05:22;34.50;47.40
6102;DHT22;3081;50.584;7.032;2022-07-29T11:10:53;34.20;46.60
6102;DHT22;3081;50.584;7.032;2022-07-29T11:13:51;33.60;47.40
6102;DHT22;3081;50.584;7.032;2022-07-29T11:16:21;33.50;48.50
6102;DHT22;3081;50.584;7.032;2022-07-29T11:19:22;32.90;48.30
6102;DHT22;3081;50.584;7.032;2022-07-29T11:21:49;32.30;49.50
6102;DHT22;3081;50.584;7.032;2022-07-29T11:24:19;31.90;50.10
6102;DHT22;3081;50.584;7.032;2022-07-29T11:27:13;31.90;50.90
6102;DHT22;3081;50.584;7.032;2022-07-29T11:29:53;31.70;50.70
6102;DHT22;3081;50.584;7.032;2022-07-29T11:32:21;31.70;51.40
6102;DHT22;3081;50.584;7.032;2022-07-29T11:35:10;31.70;50.60
6102;DHT22;3081;50.584;7.032;2022-07-29T11:37:36;31.50;50.50
6102;DHT22;3081;50.584;7.032;2022-07-29T11:40:15;31.40;51.00
6102;DHT22;3081;50.584;7.032;2022-07-29T11:42:44;31.50;51.40
6102;DHT22;3081;50.584;7.032;2022-07-29T11:45:15;31.80;51.20
6102;DHT22;3081;50.584;7.032;2022-07-29T11:47:51;32.70;50.30
6102;DHT22;3081;50.584;7.032;2022-07-29T11:50:31;33.30;48.80
6102;DHT22;3081;50.584;7.032;2022-07-29T11:53:00;33.50;48.30
6102;DHT22;3081;50.584;7.032;2022-07-29T11:55:27;33.90;49.50
6102;DHT22;3081;50.584;7.032;2022-07-29T11:57:56;34.60;48.50
6102;DHT22;3081;50.584;7.032;2022-07-29T12:00:28;34.90;46.80
6102;DHT22;3081;50.584;7.032;2022-07-29T12:02:56;35.50;46.90
6102;DHT22;3081;50.584;7.032;2022-07-29T12:05:32;35.70;45.50
6102;DHT22;3081;50.584;7.032;2022-07-29T12:08:08;35.60;45.30
6102;DHT22;3081;50.584;7.032;2022-07-29T12:10:36;35.50;45.70
6102;DHT22;3081;50.584;7.032;2022-07-29T12:13:03;35.50;45.50
6102;DHT22;3081;50.584;7.032;2022-07-29T12:15:32;35.90;45.90
6102;DHT22;3081;50.584;7.032;2022-07-29T12:18:08;36.30;43.60
6102;DHT22;3081;50.584;7.032;2022-07-29T12:20:35;35.90;43.70
6102;DHT22;3081;50.584;7.032;2022-07-29T12:23:06;36.00;44.80
6102;DHT22;3081;50.584;7.032;2022-07-29T12:25:34;36.00;44.80
6102;DHT22;3081;50.584;7.032;2022-07-29T12:28:07;36.30;43.80
6102;DHT22;3081;50.584;7.032;2022-07-29T12:30:39;36.60;43.50
6102;DHT22;3081;50.584;7.032;2022-07-29T12:33:14;36.60;43.20
6102;DHT22;3081;50.584;7.032;2022-07-29T12:35:43;36.40;42.70
6102;DHT22;3081;50.584;7.032;2022-07-29T12:38:12;36.00;43.60
6102;DHT22;3081;50.584;7.032;2022-07-29T12:40:39;35.70;43.40
6102;DHT22;3081;50.584;7.032;2022-07-29T12:43:10;35.50;44.20
6102;DHT22;3081;50.584;7.032;2022-07-29T12:45:41;35.50;44.20
6102;DHT22;3081;50.584;7.032;2022-07-29T12:48:10;35.70;43.60
6102;DHT22;3081;50.584;7.032;2022-07-29T12:50:52;36.40;43.20
6102;DHT22;3081;50.584;7.032;2022-07-29T12:53:19;37.20;42.20
6102;DHT22;3081;50.584;7.032;2022-07-29T12:55:47;36.80;41.50
6102;DHT22;3081;50.584;7.032;2022-07-29T12:58:30;36.60;42.10
6102;DHT22;3081;50.584;7.032;2022-07-29T13:01:06;36.10;42.20
6102;DHT22;3081;50.584;7.032;2022-07-29T13:03:48;35.50;43.10
6102;DHT22;3081;50.584;7.032;2022-07-29T13:06:31;35.30;43.60
6102;DHT22;3081;50.584;7.032;2022-07-29T13:09:07;35.10;43.90
6102;DHT22;3081;50.584;7.032;2022-07-29T13:11:41;34.80;44.20
6102;DHT22;3081;50.584;7.032;2022-07-29T13:14:11;34.40;45.00
6102;DHT22;3081;50.584;7.032;2022-07-29T13:17:01;34.50;44.80
6102;DHT22;3081;50.584;7.032;2022-07-29T13:19:37;35.20;45.40
6102;DHT22;3081;50.584;7.032;2022-07-29T13:22:06;36.30;43.90
6102;DHT22;3081;50.584;7.032;2022-07-29T13:24:34;37.30;42.70
6102;DHT22;3081;50.584;7.032;2022-07-29T13:27:11;37.50;42.00
6102;DHT22;3081;50.584;7.032;2022-07-29T13:29:40;37.70;41.80
6102;DHT22;3081;50.584;7.032;2022-07-29T13:32:08;37.60;41.40
6102;DHT22;3081;50.584;7.032;2022-07-29T13:34:38;37.20;42.50
6102;DHT22;3081;50.584;7.032;2022-07-29T13:37:06;37.40;42.50
6102;DHT22;3081;50.584;7.032;2022-07-29T13:39:33;38.40;43.10
6102;DHT22;3081;50.584;7.032;2022-07-29T13:42:00;39.50;39.60
6102;DHT22;3081;50.584;7.032;2022-07-29T13:44:27;40.50;36.80
6102;DHT22;3081;50.584;7.032;2022-07-29T13:46:53;41.30;35.70
6102;DHT22;3081;50.584;7.032;2022-07-29T13:49:22;42.20;35.20
6102;DHT22;3081;50.584;7.032;2022-07-29T13:51:49;43.30;34.10
6102;DHT22;3081;50.584;7.032;2022-07-29T13:54:16;44.10;32.70
6102;DHT22;3081;50.584;7.032;2022-07-29T13:56:43;43.70;32.60
6102;DHT22;3081;50.584;7.032;2022-07-29T13:59:10;43.20;32.30
6102;DHT22;3081;50.584;7.032;2022-07-29T14:01:38;42.80;37.60
6102;DHT22;3081;50.584;7.032;2022-07-29T14:04:07;43.10;38.10
6102;DHT22;3081;50.584;7.032;2022-07-29T14:06:36;44.00;36.60
6102;DHT22;3081;50.584;7.032;2022-07-29T14:09:04;45.00;31.00
6102;DHT22;3081;50.584;7.032;2022-07-29T14:11:31;45.50;30.30
6102;DHT22;3081;50.584;7.032;2022-07-29T14:13:59;45.70;30.30
6102;DHT22;3081;50.584;7.032;2022-07-29T14:16:26;45.70;30.40
6102;DHT22;3081;50.584;7.032;2022-07-29T14:18:53;45.50;30.00
6102;DHT22;3081;50.584;7.032;2022-07-29T14:21:20;45.40;30.10
6102;DHT22;3081;50.584;7.032;2022-07-29T14:23:48;45.50;31.80
6102;DHT22;3081;50.584;7.032;2022-07-29T14:26:15;45.60;35.10
6102;DHT22;3081;50.584;7.032;2022-07-29T14:28:42;44.70;36.00
6102;DHT22;3081;50.584;7.032;2022-07-29T14:31:10;44.60;35.80
6102;DHT22;3081;50.584;7.032;2022-07-29T14:33:37;45.10;36.20
6102;DHT22;3081;50.584;7.032;2022-07-29T14:36:04;46.40;35.20
6102;DHT22;3081;50.584;7.032;2022-07-29T14:38:31;46.90;35.00
6102;DHT22;3081;50.584;7.032;2022-07-29T14:40:59;46.00;34.30
6102;DHT22;3081;50.584;7.032;2022-07-29T14:43:27;45.10;34.40
6102;DHT22;3081;50.584;7.032;2022-07-29T14:45:54;44.40;35.30
6102;DHT22;3081;50.584;7.032;2022-07-29T14:48:21;43.30;35.10
6102;DHT22;3081;50.584;7.032;2022-07-29T14:50:48;42.60;36.60
6102;DHT22;3081;50.584;7.032;2022-07-29T14:53:15;41.70;36.90
6102;DHT22;3081;50.584;7.032;2022-07-29T14:55:42;42.50;37.90
6102;DHT22;3081;50.584;7.032;2022-07-29T14:58:10;44.90;37.00
6102;DHT22;3081;50.584;7.032;2022-07-29T15:00:37;45.70;34.40
6102;DHT22;3081;50.584;7.032;2022-07-29T15:03:04;43.70;34.40
6102;DHT22;3081;50.584;7.032;2022-07-29T15:05:32;41.00;36.10
6102;DHT22;3081;50.584;7.032;2022-07-29T15:08:00;40.40;38.80
6102;DHT22;3081;50.584;7.032;2022-07-29T15:10:27;41.00;38.50
6102;DHT22;3081;50.584;7.032;2022-07-29T15:12:55;41.80;37.30
6102;DHT22;3081;50.584;7.032;2022-07-29T15:15:23;42.60;37.70
6102;DHT22;3081;50.584;7.032;2022-07-29T15:17:50;44.60;37.00
6102;DHT22;3081;50.584;7.032;2022-07-29T15:20:17;46.20;29.70
6102;DHT22;3081;50.584;7.032;2022-07-29T15:22:45;47.20;28.80
6102;DHT22;3081;50.584;7.032;2022-07-29T15:25:12;48.40;28.30
6102;DHT22;3081;50.584;7.032;2022-07-29T15:27:38;47.20;28.10
6102;DHT22;3081;50.584;7.032;2022-07-29T15:30:06;44.30;29.90
6102;DHT22;3081;50.584;7.032;2022-07-29T15:32:35;43.60;31.40
6102;DHT22;3081;50.584;7.032;2022-07-29T15:35:02;44.80;30.80
6102;DHT22;3081;50.584;7.032;2022-07-29T15:37:29;46.70;29.70
6102;DHT22;3081;50.584;7.032;2022-07-29T15:39:59;47.90;28.70
6102;DHT22;3081;50.584;7.032;2022-07-29T15:42:26;48.10;28.50
6102;DHT22;3081;50.584;7.032;2022-07-29T15:44:53;47.90;28.80
6102;DHT22;3081;50.584;7.032;2022-07-29T15:47:21;48.00;28.70
6102;DHT22;3081;50.584;7.032;2022-07-29T15:49:49;46.70;29.00
6102;DHT22;3081;50.584;7.032;2022-07-29T15:52:17;45.90;29.50
6102;DHT22;3081;50.584;7.032;2022-07-29T15:54:44;43.80;30.50
6102;DHT22;3081;50.584;7.032;2022-07-29T15:57:11;42.80;32.00
6102;DHT22;3081;50.584;7.032;2022-07-29T15:59:38;43.70;32.00
6102;DHT22;3081;50.584;7.032;2022-07-29T16:02:06;43.30;31.00
6102;DHT22;3081;50.584;7.032;2022-07-29T16:04:33;41.20;32.80
6102;DHT22;3081;50.584;7.032;2022-07-29T16:07:01;38.50;35.30
6102;DHT22;3081;50.584;7.032;2022-07-29T16:09:28;37.10;38.20
6102;DHT22;3081;50.584;7.032;2022-07-29T16:11:55;39.00;37.00
6102;DHT22;3081;50.584;7.032;2022-07-29T16:14:22;40.70;34.50
6102;DHT22;3081;50.584;7.032;2022-07-29T16:16:49;41.30;33.60
6102;DHT22;3081;50.584;7.032;2022-07-29T16:19:16;40.50;33.80
6102;DHT22;3081;50.584;7.032;2022-07-29T16:21:43;39.40;34.90
6102;DHT22;3081;50.584;7.032;2022-07-29T16:24:12;38.20;35.70
6102;DHT22;3081;50.584;7.032;2022-07-29T16:26:39;36.50;37.50